sensor_id;sensor_type;location;lat;lon;timestamp;temperature;humidity
7658;DHT22;8462;53.156;8.220;2023-12-07T00:01:06;5.70;99.90
7658;DHT22;8462;53.156;8.220;2023-12-07T00:03:34;5.70;99.90
7658;DHT22;8462;53.156;8.220;2023-12-07T00:06:01;5.70;99.90
7658;DHT22;8462;53.156;8.220;2023-12-07T00:08:30;5.70;99.90
7658;DHT22;8462;53.156;8.220;2023-12-07T00:10:57;5.70;99.90
7658;DHT22;8462;53.156;8.220;2023-12-07T00:13:26;5.70;99.90
7658;DHT22;8462;53.156;8.220;2023-12-07T00:15:53;5.70;99.90
7658;DHT22;8462;53.156;8.220;2023-12-07T00:18:20;5.70;99.90
7658;DHT22;8462;53.156;8.220;2023-12-07T00:20:49;5.70;99.90
7658;DHT22;8462;53.156;8.220;2023-12-07T00:23:16;5.70;99.90
7658;DHT22;8462;53.156;8.220;2023-12-07T00:25:43;5.70;99.90
7658;DHT22;8462;53.156;8.220;2023-12-07T00:28:11;5.70;99.90
7658;DHT22;8462;53.156;8.220;2023-12-07T00:30:40;5.70;99.90
7658;DHT22;8462;53.156;8.220;2023-12-07T00:33:08;5.70;99.90
7658;DHT22;8462;53.156;8.220;2023-12-07T00:35:35;5.70;99.90
7658;DHT22;8462;53.156;8.220;2023-12-07T00:38:04;5.70;99.90
7658;DHT22;8462;53.156;8.220;2023-12-07T00:40:34;5.70;99.90
7658;DHT22;8462;53.156;8.220;2023-12-07T00:43:02;5.70;99.90
7658;DHT22;8462;53.156;8.220;2023-12-07T00:45:30;5.60;99.90
7658;DHT22;8462;53.156;8.220;2023-12-07T00:47:57;5.60;99.90
7658;DHT22;8462;53.156;8.220;2023-12-07T00:50:24;5.70;99.90
7658;DHT22;8462;53.156;8.220;2023-12-07T00:52:51;5.70;99.90
7658;DHT22;8462;53.156;8.220;2023-12-07T00:55:20;5.70;99.90
7658;DHT22;8462;53.156;8.220;2023-12-07T00:57:47;5.70;99.90
7658;DHT22;8462;53.156;8.220;2023-12-07T01:00:15;5.80;99.90
7658;DHT22;8462;53.156;8.220;2023-12-07T01:02:42;5.80;99.90
7658;DHT22;8462;53.156;8.220;2023-12-07T01:05:09;5.80;99.90
7658;DHT22;8462;53.156;8.220;2023-12-07T01:07:37;5.80;99.90
7658;DHT22;8462;53.156;8.220;2023-12-07T01:10:05;5.80;99.90
7658;DHT22;8462;53.156;8.220;2023-12-07T01:12:34;5.80;99.90
7658;DHT22;8462;53.156;8.220;2023-12-07T01:15:02;5.80;99.90
7658;DHT22;8462;53.156;8.220;2023-12-07T01:17:30;5.80;99.90
7658;DHT22;8462;53.156;8.220;2023-12-07T01:19:57;5.80;99.90
7658;DHT22;8462;53.156;8.220;2023-12-07T01:22:24;5.80;99.90
7658;DHT22;8462;53.156;8.220;2023-12-07T01:24:51;5.70;99.90
7658;DHT22;8462;53.156;8.220;2023-12-07T01:27:18;5.60;99.90
7658;DHT22;8462;53.156;8.220;2023-12-07T01:29:48;5.60;99.90
7658;DHT22;8462;53.156;8.220;2023-12-07T01:32:15;5.60;99.90
7658;DHT22;8462;53.156;8.220;2023-12-07T01:34:42;5.60;99.90
7658;DHT22;8462;53.156;8.220;2023-12-07T01:37:09;5.60;99.90
7658;DHT22;8462;53.156;8.220;2023-12-07T01:39:36;5.60;99.90
7658;DHT22;8462;53.156;8.220;2023-12-07T01:42:03;5.60;99.90
7658;DHT22;8462;53.156;8.220;2023-12-07T01:44:30;5.60;99.90
7658;DHT22;8462;53.156;8.220;2023-12-07T01:47:00;5.60;99.90
7658;DHT22;8462;53.156;8.220;2023-12-07T01:49:29;5.60;99.90
7658;DHT22;8462;53.156;8.220;2023-12-07T01:51:56;5.60;99.90
7658;DHT22;8462;53.156;8.220;2023-12-07T01:54:24;5.60;99.90
7658;DHT22;8462;53.156;8.220;2023-12-07T01:56:51;5.60;99.90
7658;DHT22;8462;53.156;8.220;2023-12-07T01:59:18;5.60;99.90
7658;DHT22;8462;53.156;8.220;2023-12-07T02:01:45;5.60;99.90
7658;DHT22;8462;53.156;8.220;2023-12-07T02:04:14;5.60;99.90
7658;DHT22;8462;53.156;8.220;2023-12-07T02:06:41;5.60;99.90
7658;DHT22;8462;53.156;8.220;2023-12-07T02:09:08;5.60;99.90
7658;DHT22;8462;53.156;8.220;2023-12-07T02:11:35;5.60;99.90
7658;DHT22;8462;53.156;8.220;2023-12-07T02:14:02;5.60;99.90
7658;DHT22;8462;53.156;8.220;2023-12-07T02:16:33;5.60;99.90
7658;DHT22;8462;53.156;8.220;2023-12-07T02:19:07;5.60;99.90
7658;DHT22;8462;53.156;8.220;2023-12-07T02:21:47;5.60;99.90
7658;DHT22;8462;53.156;8.220;2023-12-07T02:24:20;5.60;99.90
7658;DHT22;8462;53.156;8.220;2023-12-07T02:26:49;5.60;99.90
7658;DHT22;8462;53.156;8.220;2023-12-07T02:29:16;5.60;99.90
7658;DHT22;8462;53.156;8.220;2023-12-07T02:31:44;5.60;99.90
7658;DHT22;8462;53.156;8.220;2023-12-07T02:34:11;5.60;99.90
7658;DHT22;8462;53.156;8.220;2023-12-07T02:36:39;5.60;99.90
7658;DHT22;8462;53.156;8.220;2023-12-07T02:39:07;5.70;99.90
7658;DHT22;8462;53.156;8.220;2023-12-07T02:41:35;5.70;99.90
7658;DHT22;8462;53.156;8.220;2023-12-07T02:44:04;5.60;99.90
7658;DHT22;8462;53.156;8.220;2023-12-07T02:46:31;5.70;99.90
7658;DHT22;8462;53.156;8.220;2023-12-07T02:48:59;5.70;99.90
7658;DHT22;8462;53.156;8.220;2023-12-07T02:51:26;5.70;99.90
7658;DHT22;8462;53.156;8.220;2023-12-07T02:53:53;5.70;99.90
7658;DHT22;8462;53.156;8.220;2023-12-07T02:56:21;5.70;99.90
7658;DHT22;8462;53.156;8.220;2023-12-07T02:58:48;5.80;99.90
7658;DHT22;8462;53.156;8.220;2023-12-07T03:01:16;5.70;99.90
7658;DHT22;8462;53.156;8.220;2023-12-07T03:03:43;5.70;99.90
7658;DHT22;8462;53.156;8.220;2023-12-07T03:06:12;5.70;99.90
7658;DHT22;8462;53.156;8.220;2023-12-07T03:08:39;5.80;99.90
7658;DHT22;8462;53.156;8.220;2023-12-07T03:11:06;5.80;99.90
7658;DHT22;8462;53.156;8.220;2023-12-07T03:13:33;5.70;99.90
7658;DHT22;8462;53.156;8.220;2023-12-07T03:16:00;5.70;99.90
7658;DHT22;8462;53.156;8.220;2023-12-07T03:18:28;5.70;99.90
7658;DHT22;8462;53.156;8.220;2023-12-07T03:20:55;5.70;99.90
7658;DHT22;8462;53.156;8.220;2023-12-07T03:23:22;5.60;99.90
7658;DHT22;8462;53.156;8.220;2023-12-07T03:25:49;5.60;99.90
7658;DHT22;8462;53.156;8.220;2023-12-07T03:28:17;5.70;99.90
7658;DHT22;8462;53.156;8.220;2023-12-07T03:30:43;5.70;99.90
7658;DHT22;8462;53.156;8.220;2023-12-07T03:33:10;5.70;99.90
7658;DHT22;8462;53.156;8.220;2023-12-07T03:35:38;5.70;99.90
7658;DHT22;8462;53.156;8.220;2023-12-07T03:38:06;5.60;99.90
7658;DHT22;8462;53.156;8.220;2023-12-07T03:40:33;5.70;99.90
7658;DHT22;8462;53.156;8.220;2023-12-07T03:43:00;5.70;99.90
7658;DHT22;8462;53.156;8.220;2023-12-07T03:45:30;5.70;99.90
7658;DHT22;8462;53.156;8.220;2023-12-07T03:47:57;5.70;99.90
7658;DHT22;8462;53.156;8.220;2023-12-07T03:50:24;5.70;99.90
7658;DHT22;8462;53.156;8.220;2023-12-07T03:52:52;5.70;99.90
7658;DHT22;8462;53.156;8.220;2023-12-07T03:55:19;5.70;99.90
7658;DHT22;8462;53.156;8.220;2023-12-07T03:57:46;5.70;99.90
7658;DHT22;8462;53.156;8.220;2023-12-07T04:00:13;5.70;99.90
7658;DHT22;8462;53.156;8.220;2023-12-07T04:02:40;5.70;99.90
7658;DHT22;8462;53.156;8.220;2023-12-07T04:05:07;5.70;99.90
7658;DHT22;8462;53.156;8.220;2023-12-07T04:07:35;5.70;99.90
7658;DHT22;8462;53.156;8.220;2023-12-07T04:10:03;5.70;99.90
7658;DHT22;8462;53.156;8.220;2023-12-07T04:12:31;5.70;99.90
7658;DHT22;8462;53.156;8.220;2023-12-07T04:14:58;5.70;99.90
7658;DHT22;8462;53.156;8.220;2023-12-07T04:17:25;5.70;99.90
7658;DHT22;8462;53.156;8.220;2023-12-07T04:19:52;5.70;99.90
7658;DHT22;8462;53.156;8.220;2023-12-07T04:22:20;5.80;99.90
7658;DHT22;8462;53.156;8.220;2023-12-07T04:24:47;5.80;99.90
7658;DHT22;8462;53.156;8.220;2023-12-07T04:27:15;5.80;99.90
7658;DHT22;8462;53.156;8.220;2023-12-07T04:29:42;5.80;99.90
7658;DHT22;8462;53.156;8.220;2023-12-07T04:32:09;5.70;99.90
7658;DHT22;8462;53.156;8.220;2023-12-07T04:34:36;5.70;99.90
7658;DHT22;8462;53.156;8.220;2023-12-07T04:37:04;5.80;99.90
7658;DHT22;8462;53.156;8.220;2023-12-07T04:39:30;5.80;99.90
7658;DHT22;8462;53.156;8.220;2023-12-07T04:41:57;5.80;99.90
7658;DHT22;8462;53.156;8.220;2023-12-07T04:44:26;5.80;99.90
7658;DHT22;8462;53.156;8.220;2023-12-07T04:46:52;5.80;99.90
7658;DHT22;8462;53.156;8.220;2023-12-07T04:49:21;5.80;99.90
7658;DHT22;8462;53.156;8.220;2023-12-07T04:51:48;5.80;99.90
7658;DHT22;8462;53.156;8.220;2023-12-07T04:54:15;5.80;99.90
7658;DHT22;8462;53.156;8.220;2023-12-07T04:56:42;5.80;99.90
7658;DHT22;8462;53.156;8.220;2023-12-07T04:59:10;5.80;99.90
7658;DHT22;8462;53.156;8.220;2023-12-07T05:01:38;5.80;99.90
7658;DHT22;8462;53.156;8.220;2023-12-07T05:04:05;5.80;99.90
7658;DHT22;8462;53.156;8.220;2023-12-07T05:06:32;5.80;99.90
7658;DHT22;8462;53.156;8.220;2023-12-07T05:08:59;5.80;99.90
7658;DHT22;8462;53.156;8.220;2023-12-07T05:11:28;5.80;99.90
7658;DHT22;8462;53.156;8.220;2023-12-07T05:13:55;5.70;99.90
7658;DHT22;8462;53.156;8.220;2023-12-07T05:16:23;5.80;99.90
7658;DHT22;8462;53.156;8.220;2023-12-07T05:18:51;5.80;99.90
7658;DHT22;8462;53.156;8.220;2023-12-07T05:21:18;5.70;99.90
7658;DHT22;8462;53.156;8.220;2023-12-07T05:23:45;5.70;99.90
7658;DHT22;8462;53.156;8.220;2023-12-07T05:26:13;5.70;99.90
7658;DHT22;8462;53.156;8.220;2023-12-07T05:28:42;5.70;99.90
7658;DHT22;8462;53.156;8.220;2023-12-07T05:31:15;5.70;99.90
7658;DHT22;8462;53.156;8.220;2023-12-07T05:33:42;5.60;99.90
7658;DHT22;8462;53.156;8.220;2023-12-07T05:36:10;5.70;99.90
7658;DHT22;8462;53.156;8.220;2023-12-07T05:38:37;5.70;99.90
7658;DHT22;8462;53.156;8.220;2023-12-07T05:41:04;5.60;99.90
7658;DHT22;8462;53.156;8.220;2023-12-07T05:43:31;5.60;99.90
7658;DHT22;8462;53.156;8.220;2023-12-07T05:45:59;5.60;99.90
7658;DHT22;8462;53.156;8.220;2023-12-07T05:48:26;5.60;99.90
7658;DHT22;8462;53.156;8.220;2023-12-07T05:50:53;5.70;99.90
7658;DHT22;8462;53.156;8.220;2023-12-07T05:53:22;5.60;99.90
7658;DHT22;8462;53.156;8.220;2023-12-07T05:55:49;5.70;99.90
7658;DHT22;8462;53.156;8.220;2023-12-07T05:58:17;5.70;99.90
7658;DHT22;8462;53.156;8.220;2023-12-07T06:00:44;5.80;99.90
7658;DHT22;8462;53.156;8.220;2023-12-07T06:03:12;5.80;99.90
7658;DHT22;8462;53.156;8.220;2023-12-07T06:05:40;5.80;99.90
7658;DHT22;8462;53.156;8.220;2023-12-07T06:08:07;5.70;99.90
7658;DHT22;8462;53.156;8.220;2023-12-07T06:10:35;5.80;99.90
7658;DHT22;8462;53.156;8.220;2023-12-07T06:13:02;5.80;99.90
7658;DHT22;8462;53.156;8.220;2023-12-07T06:15:30;5.70;99.90
7658;DHT22;8462;53.156;8.220;2023-12-07T06:17:58;5.70;99.90
7658;DHT22;8462;53.156;8.220;2023-12-07T06:20:25;5.80;99.90
7658;DHT22;8462;53.156;8.220;2023-12-07T06:22:52;5.80;99.90
7658;DHT22;8462;53.156;8.220;2023-12-07T06:25:19;5.70;99.90
7658;DHT22;8462;53.156;8.220;2023-12-07T06:27:47;5.70;99.90
7658;DHT22;8462;53.156;8.220;2023-12-07T06:30:14;5.70;99.90
7658;DHT22;8462;53.156;8.220;2023-12-07T06:32:41;5.70;99.90
7658;DHT22;8462;53.156;8.220;2023-12-07T06:35:11;5.70;99.90
7658;DHT22;8462;53.156;8.220;2023-12-07T06:37:40;5.70;99.90
7658;DHT22;8462;53.156;8.220;2023-12-07T06:40:09;5.80;99.90
7658;DHT22;8462;53.156;8.220;2023-12-07T06:42:37;5.80;99.90
7658;DHT22;8462;53.156;8.220;2023-12-07T06:45:07;5.80;99.90
7658;DHT22;8462;53.156;8.220;2023-12-07T06:47:36;5.80;99.90
7658;DHT22;8462;53.156;8.220;2023-12-07T06:50:05;5.90;99.90
7658;DHT22;8462;53.156;8.220;2023-12-07T06:52:34;5.80;99.90
7658;DHT22;8462;53.156;8.220;2023-12-07T06:55:03;5.90;99.90
7658;DHT22;8462;53.156;8.220;2023-12-07T06:57:30;5.90;99.90
7658;DHT22;8462;53.156;8.220;2023-12-07T06:59:57;5.80;99.90
7658;DHT22;8462;53.156;8.220;2023-12-07T07:02:25;5.80;99.90
7658;DHT22;8462;53.156;8.220;2023-12-07T07:04:52;5.80;99.90
7658;DHT22;8462;53.156;8.220;2023-12-07T07:07:20;5.80;99.90
7658;DHT22;8462;53.156;8.220;2023-12-07T07:09:47;5.80;99.90
7658;DHT22;8462;53.156;8.220;2023-12-07T07:12:14;5.80;99.90
7658;DHT22;8462;53.156;8.220;2023-12-07T07:14:42;5.70;99.90
7658;DHT22;8462;53.156;8.220;2023-12-07T07:17:09;5.70;99.90
7658;DHT22;8462;53.156;8.220;2023-12-07T07:19:38;5.70;99.90
7658;DHT22;8462;53.156;8.220;2023-12-07T07:22:05;5.80;99.90
7658;DHT22;8462;53.156;8.220;2023-12-07T07:24:32;5.80;99.90
7658;DHT22;8462;53.156;8.220;2023-12-07T07:26:59;5.80;99.90
7658;DHT22;8462;53.156;8.220;2023-12-07T07:29:28;5.80;99.90
7658;DHT22;8462;53.156;8.220;2023-12-07T07:31:55;5.80;99.90
7658;DHT22;8462;53.156;8.220;2023-12-07T07:34:22;5.80;99.90
7658;DHT22;8462;53.156;8.220;2023-12-07T07:36:52;5.80;99.90
7658;DHT22;8462;53.156;8.220;2023-12-07T07:39:19;5.80;99.90
7658;DHT22;8462;53.156;8.220;2023-12-07T07:41:47;5.80;99.90
7658;DHT22;8462;53.156;8.220;2023-12-07T07:44:14;5.80;99.90
7658;DHT22;8462;53.156;8.220;2023-12-07T07:46:41;5.80;99.90
7658;DHT22;8462;53.156;8.220;2023-12-07T07:49:08;5.80;99.90
7658;DHT22;8462;53.156;8.220;2023-12-07T07:51:35;5.80;99.90
7658;DHT22;8462;53.156;8.220;2023-12-07T07:54:03;5.80;99.90
7658;DHT22;8462;53.156;8.220;2023-12-07T07:56:30;5.80;99.90
7658;DHT22;8462;53.156;8.220;2023-12-07T07:58:57;5.90;99.90
7658;DHT22;8462;53.156;8.220;2023-12-07T08:01:27;5.90;99.90
7658;DHT22;8462;53.156;8.220;2023-12-07T08:03:54;5.90;99.90
7658;DHT22;8462;53.156;8.220;2023-12-07T08:06:22;5.90;99.90
7658;DHT22;8462;53.156;8.220;2023-12-07T08:08:51;6.00;99.90
7658;DHT22;8462;53.156;8.220;2023-12-07T08:11:23;6.00;99.90
7658;DHT22;8462;53.156;8.220;2023-12-07T08:13:50;6.00;99.90
7658;DHT22;8462;53.156;8.220;2023-12-07T08:16:17;6.00;99.90
7658;DHT22;8462;53.156;8.220;2023-12-07T08:18:46;6.00;99.90
7658;DHT22;8462;53.156;8.220;2023-12-07T08:21:19;6.00;99.90
7658;DHT22;8462;53.156;8.220;2023-12-07T08:23:45;6.00;99.90
7658;DHT22;8462;53.156;8.220;2023-12-07T08:26:12;6.00;99.90
7658;DHT22;8462;53.156;8.220;2023-12-07T08:28:42;6.00;99.90
7658;DHT22;8462;53.156;8.220;2023-12-07T08:31:10;6.00;99.90
7658;DHT22;8462;53.156;8.220;2023-12-07T08:33:38;6.00;99.90
7658;DHT22;8462;53.156;8.220;2023-12-07T08:36:08;6.10;99.90
7658;DHT22;8462;53.156;8.220;2023-12-07T08:38:35;6.10;99.90
7658;DHT22;8462;53.156;8.220;2023-12-07T08:41:06;6.10;99.90
7658;DHT22;8462;53.156;8.220;2023-12-07T08:43:34;6.10;99.90
7658;DHT22;8462;53.156;8.220;2023-12-07T08:46:03;6.10;99.90
7658;DHT22;8462;53.156;8.220;2023-12-07T08:48:32;6.10;99.90
7658;DHT22;8462;53.156;8.220;2023-12-07T08:50:59;6.10;99.90
7658;DHT22;8462;53.156;8.220;2023-12-07T08:53:27;6.10;99.90
7658;DHT22;8462;53.156;8.220;2023-12-07T08:55:54;6.10;99.90
7658;DHT22;8462;53.156;8.220;2023-12-07T08:58:21;6.20;99.90
7658;DHT22;8462;53.156;8.220;2023-12-07T09:00:49;6.20;99.90
7658;DHT22;8462;53.156;8.220;2023-12-07T09:03:17;6.30;99.90
7658;DHT22;8462;53.156;8.220;2023-12-07T09:05:44;6.30;99.90
7658;DHT22;8462;53.156;8.220;2023-12-07T09:08:11;6.30;99.90
7658;DHT22;8462;53.156;8.220;2023-12-07T09:10:38;6.30;99.90
7658;DHT22;8462;53.156;8.220;2023-12-07T09:13:06;6.30;99.90
7658;DHT22;8462;53.156;8.220;2023-12-07T09:15:33;6.30;99.90
7658;DHT22;8462;53.156;8.220;2023-12-07T09:18:03;6.30;99.90
7658;DHT22;8462;53.156;8.220;2023-12-07T09:20:31;6.30;99.90
7658;DHT22;8462;53.156;8.220;2023-12-07T09:22:58;6.40;99.90
7658;DHT22;8462;53.156;8.220;2023-12-07T09:25:25;6.40;99.90
7658;DHT22;8462;53.156;8.220;2023-12-07T09:27:54;6.50;99.90
7658;DHT22;8462;53.156;8.220;2023-12-07T09:30:22;6.50;99.90
7658;DHT22;8462;53.156;8.220;2023-12-07T09:32:49;6.60;99.90
7658;DHT22;8462;53.156;8.220;2023-12-07T09:35:16;6.50;99.90
7658;DHT22;8462;53.156;8.220;2023-12-07T09:37:46;6.60;99.90
7658;DHT22;8462;53.156;8.220;2023-12-07T09:40:16;6.60;99.90
7658;DHT22;8462;53.156;8.220;2023-12-07T09:42:46;6.60;99.90
7658;DHT22;8462;53.156;8.220;2023-12-07T09:45:13;6.60;99.90
7658;DHT22;8462;53.156;8.220;2023-12-07T09:47:42;6.60;99.90
7658;DHT22;8462;53.156;8.220;2023-12-07T09:50:10;6.70;99.90
7658;DHT22;8462;53.156;8.220;2023-12-07T09:52:38;6.70;99.90
7658;DHT22;8462;53.156;8.220;2023-12-07T09:55:07;6.80;99.90
7658;DHT22;8462;53.156;8.220;2023-12-07T09:57:37;6.70;99.90
7658;DHT22;8462;53.156;8.220;2023-12-07T10:00:05;6.80;99.90
7658;DHT22;8462;53.156;8.220;2023-12-07T10:02:37;6.80;99.90
7658;DHT22;8462;53.156;8.220;2023-12-07T10:05:04;6.90;99.90
7658;DHT22;8462;53.156;8.220;2023-12-07T10:07:32;7.00;99.90
7658;DHT22;8462;53.156;8.220;2023-12-07T10:10:01;7.00;99.90
7658;DHT22;8462;53.156;8.220;2023-12-07T10:12:30;7.00;99.90
7658;DHT22;8462;53.156;8.220;2023-12-07T10:14:59;7.00;99.90
7658;DHT22;8462;53.156;8.220;2023-12-07T10:17:43;7.00;99.90
7658;DHT22;8462;53.156;8.220;2023-12-07T10:20:12;7.00;99.90
7658;DHT22;8462;53.156;8.220;2023-12-07T10:22:41;7.00;99.90
7658;DHT22;8462;53.156;8.220;2023-12-07T10:25:10;7.10;99.90
7658;DHT22;8462;53.156;8.220;2023-12-07T10:27:41;7.10;99.90
7658;DHT22;8462;53.156;8.220;2023-12-07T10:30:11;7.20;99.90
7658;DHT22;8462;53.156;8.220;2023-12-07T10:32:44;7.20;99.90
7658;DHT22;8462;53.156;8.220;2023-12-07T10:35:11;7.20;99.90
7658;DHT22;8462;53.156;8.220;2023-12-07T10:37:38;7.20;99.90
7658;DHT22;8462;53.156;8.220;2023-12-07T10:40:06;7.30;99.90
7658;DHT22;8462;53.156;8.220;2023-12-07T10:42:36;7.30;99.90
7658;DHT22;8462;53.156;8.220;2023-12-07T10:45:06;7.30;99.90
7658;DHT22;8462;53.156;8.220;2023-12-07T10:47:37;7.40;99.90
7658;DHT22;8462;53.156;8.220;2023-12-07T10:50:08;7.40;99.90
7658;DHT22;8462;53.156;8.220;2023-12-07T10:52:44;7.40;99.90
7658;DHT22;8462;53.156;8.220;2023-12-07T10:55:16;7.40;99.90
7658;DHT22;8462;53.156;8.220;2023-12-07T10:57:44;7.40;99.90
7658;DHT22;8462;53.156;8.220;2023-12-07T11:00:14;7.50;99.90
7658;DHT22;8462;53.156;8.220;2023-12-07T11:02:41;7.50;99.90
7658;DHT22;8462;53.156;8.220;2023-12-07T11:05:09;7.50;99.90
7658;DHT22;8462;53.156;8.220;2023-12-07T11:07:44;7.50;99.90
7658;DHT22;8462;53.156;8.220;2023-12-07T11:10:20;7.50;99.90
7658;DHT22;8462;53.156;8.220;2023-12-07T11:12:56;7.50;99.90
7658;DHT22;8462;53.156;8.220;2023-12-07T11:15:28;7.50;99.90
7658;DHT22;8462;53.156;8.220;2023-12-07T11:17:56;7.50;99.90
7658;DHT22;8462;53.156;8.220;2023-12-07T11:20:34;7.40;99.90
7658;DHT22;8462;53.156;8.220;2023-12-07T11:23:07;7.50;99.90
7658;DHT22;8462;53.156;8.220;2023-12-07T11:25:34;7.60;99.90
7658;DHT22;8462;53.156;8.220;2023-12-07T11:28:01;7.60;99.90
7658;DHT22;8462;53.156;8.220;2023-12-07T11:30:32;7.60;99.90
7658;DHT22;8462;53.156;8.220;2023-12-07T11:33:03;7.60;99.90
7658;DHT22;8462;53.156;8.220;2023-12-07T11:35:30;7.70;99.90
7658;DHT22;8462;53.156;8.220;2023-12-07T11:38:05;7.70;99.90
7658;DHT22;8462;53.156;8.220;2023-12-07T11:40:35;7.80;99.90
7658;DHT22;8462;53.156;8.220;2023-12-07T11:43:02;7.80;99.90
7658;DHT22;8462;53.156;8.220;2023-12-07T11:45:39;7.80;99.90
7658;DHT22;8462;53.156;8.220;2023-12-07T11:48:10;7.80;99.90
7658;DHT22;8462;53.156;8.220;2023-12-07T11:50:53;7.80;99.90
7658;DHT22;8462;53.156;8.220;2023-12-07T11:53:22;7.70;99.90
7658;DHT22;8462;53.156;8.220;2023-12-07T11:55:50;7.70;99.90
7658;DHT22;8462;53.156;8.220;2023-12-07T11:58:17;7.70;99.90
7658;DHT22;8462;53.156;8.220;2023-12-07T12:00:45;7.70;99.90
7658;DHT22;8462;53.156;8.220;2023-12-07T12:03:13;7.70;99.90
7658;DHT22;8462;53.156;8.220;2023-12-07T12:05:41;7.70;99.90
7658;DHT22;8462;53.156;8.220;2023-12-07T12:08:09;7.70;99.90
7658;DHT22;8462;53.156;8.220;2023-12-07T12:10:37;7.70;99.90
7658;DHT22;8462;53.156;8.220;2023-12-07T12:13:04;7.70;99.90
7658;DHT22;8462;53.156;8.220;2023-12-07T12:15:31;7.80;99.90
7658;DHT22;8462;53.156;8.220;2023-12-07T12:18:01;7.80;99.90
7658;DHT22;8462;53.156;8.220;2023-12-07T12:20:28;7.80;99.90
7658;DHT22;8462;53.156;8.220;2023-12-07T12:22:55;7.90;99.90
7658;DHT22;8462;53.156;8.220;2023-12-07T12:25:23;7.90;99.90
7658;DHT22;8462;53.156;8.220;2023-12-07T12:27:52;7.90;99.90
7658;DHT22;8462;53.156;8.220;2023-12-07T12:30:20;8.00;99.90
7658;DHT22;8462;53.156;8.220;2023-12-07T12:32:49;8.00;99.90
7658;DHT22;8462;53.156;8.220;2023-12-07T12:35:17;8.10;99.90
7658;DHT22;8462;53.156;8.220;2023-12-07T12:37:45;8.10;99.90
7658;DHT22;8462;53.156;8.220;2023-12-07T12:40:15;8.10;99.90
7658;DHT22;8462;53.156;8.220;2023-12-07T12:42:44;8.10;99.90
7658;DHT22;8462;53.156;8.220;2023-12-07T12:45:11;8.10;99.90
7658;DHT22;8462;53.156;8.220;2023-12-07T12:47:39;8.10;99.90
7658;DHT22;8462;53.156;8.220;2023-12-07T12:50:09;8.10;99.90
7658;DHT22;8462;53.156;8.220;2023-12-07T12:52:39;8.10;99.90
7658;DHT22;8462;53.156;8.220;2023-12-07T12:55:10;8.10;99.90
7658;DHT22;8462;53.156;8.220;2023-12-07T12:57:37;8.10;99.90
7658;DHT22;8462;53.156;8.220;2023-12-07T13:00:05;8.10;99.90
7658;DHT22;8462;53.156;8.220;2023-12-07T13:02:33;8.20;99.90
7658;DHT22;8462;53.156;8.220;2023-12-07T13:05:01;8.10;99.90
7658;DHT22;8462;53.156;8.220;2023-12-07T13:07:28;8.10;99.90
7658;DHT22;8462;53.156;8.220;2023-12-07T13:09:56;8.00;99.90
7658;DHT22;8462;53.156;8.220;2023-12-07T13:12:23;7.90;99.90
7658;DHT22;8462;53.156;8.220;2023-12-07T13:14:53;7.80;99.90
7658;DHT22;8462;53.156;8.220;2023-12-07T13:17:20;7.80;99.90
7658;DHT22;8462;53.156;8.220;2023-12-07T13:19:47;7.70;99.90
7658;DHT22;8462;53.156;8.220;2023-12-07T13:22:14;7.70;99.90
7658;DHT22;8462;53.156;8.220;2023-12-07T13:24:42;7.70;99.90
7658;DHT22;8462;53.156;8.220;2023-12-07T13:27:10;7.70;99.90
7658;DHT22;8462;53.156;8.220;2023-12-07T13:29:37;7.70;99.90
7658;DHT22;8462;53.156;8.220;2023-12-07T13:32:05;7.60;99.90
7658;DHT22;8462;53.156;8.220;2023-12-07T13:34:32;7.60;99.90
7658;DHT22;8462;53.156;8.220;2023-12-07T13:36:59;7.50;99.90
7658;DHT22;8462;53.156;8.220;2023-12-07T13:39:26;7.50;99.90
7658;DHT22;8462;53.156;8.220;2023-12-07T13:41:54;7.40;99.90
7658;DHT22;8462;53.156;8.220;2023-12-07T13:44:23;7.40;99.90
7658;DHT22;8462;53.156;8.220;2023-12-07T13:46:50;7.30;99.90
7658;DHT22;8462;53.156;8.220;2023-12-07T13:49:19;7.20;99.90
7658;DHT22;8462;53.156;8.220;2023-12-07T13:51:46;7.20;99.90
7658;DHT22;8462;53.156;8.220;2023-12-07T13:54:13;7.20;99.90
7658;DHT22;8462;53.156;8.220;2023-12-07T13:56:40;7.10;99.90
7658;DHT22;8462;53.156;8.220;2023-12-07T13:59:07;7.00;99.90
7658;DHT22;8462;53.156;8.220;2023-12-07T14:01:37;7.00;99.90
7658;DHT22;8462;53.156;8.220;2023-12-07T14:04:05;7.00;99.90
7658;DHT22;8462;53.156;8.220;2023-12-07T14:06:33;6.90;99.90
7658;DHT22;8462;53.156;8.220;2023-12-07T14:09:01;6.80;99.90
7658;DHT22;8462;53.156;8.220;2023-12-07T14:11:28;6.60;99.90
7658;DHT22;8462;53.156;8.220;2023-12-07T14:13:56;6.40;99.90
7658;DHT22;8462;53.156;8.220;2023-12-07T14:16:23;6.30;99.90
7658;DHT22;8462;53.156;8.220;2023-12-07T14:18:51;6.30;99.90
7658;DHT22;8462;53.156;8.220;2023-12-07T14:21:21;6.30;99.90
7658;DHT22;8462;53.156;8.220;2023-12-07T14:23:49;6.30;99.90
7658;DHT22;8462;53.156;8.220;2023-12-07T14:26:20;6.20;99.90
7658;DHT22;8462;53.156;8.220;2023-12-07T14:28:48;6.20;99.90
7658;DHT22;8462;53.156;8.220;2023-12-07T14:31:15;6.10;99.90
7658;DHT22;8462;53.156;8.220;2023-12-07T14:33:43;6.00;99.90
7658;DHT22;8462;53.156;8.220;2023-12-07T14:36:12;6.00;99.90
7658;DHT22;8462;53.156;8.220;2023-12-07T14:38:39;5.90;99.90
7658;DHT22;8462;53.156;8.220;2023-12-07T14:41:06;5.90;99.90
7658;DHT22;8462;53.156;8.220;2023-12-07T14:43:33;5.80;99.90
7658;DHT22;8462;53.156;8.220;2023-12-07T14:46:00;5.70;99.90
7658;DHT22;8462;53.156;8.220;2023-12-07T14:48:29;5.70;99.90
7658;DHT22;8462;53.156;8.220;2023-12-07T14:50:56;5.70;99.90
7658;DHT22;8462;53.156;8.220;2023-12-07T14:53:24;5.60;99.90
7658;DHT22;8462;53.156;8.220;2023-12-07T14:55:52;5.60;99.90
7658;DHT22;8462;53.156;8.220;2023-12-07T14:58:19;5.60;99.90
7658;DHT22;8462;53.156;8.220;2023-12-07T15:00:46;5.60;99.90
7658;DHT22;8462;53.156;8.220;2023-12-07T15:03:13;5.60;99.90
7658;DHT22;8462;53.156;8.220;2023-12-07T15:05:40;5.60;99.90
7658;DHT22;8462;53.156;8.220;2023-12-07T15:08:07;5.50;99.90
7658;DHT22;8462;53.156;8.220;2023-12-07T15:10:36;5.50;99.90
7658;DHT22;8462;53.156;8.220;2023-12-07T15:13:03;5.40;99.90
7658;DHT22;8462;53.156;8.220;2023-12-07T15:15:30;5.40;99.90
7658;DHT22;8462;53.156;8.220;2023-12-07T15:17:57;5.40;99.90
7658;DHT22;8462;53.156;8.220;2023-12-07T15:20:24;5.40;99.90
7658;DHT22;8462;53.156;8.220;2023-12-07T15:22:51;5.30;99.90
7658;DHT22;8462;53.156;8.220;2023-12-07T15:25:18;5.30;99.90
7658;DHT22;8462;53.156;8.220;2023-12-07T15:27:51;5.10;99.90
7658;DHT22;8462;53.156;8.220;2023-12-07T15:30:18;5.10;99.90
7658;DHT22;8462;53.156;8.220;2023-12-07T15:32:48;5.10;99.90
7658;DHT22;8462;53.156;8.220;2023-12-07T15:35:16;5.10;99.90
7658;DHT22;8462;53.156;8.220;2023-12-07T15:37:43;5.10;99.90
7658;DHT22;8462;53.156;8.220;2023-12-07T15:40:10;5.10;99.90
7658;DHT22;8462;53.156;8.220;2023-12-07T15:42:37;5.20;99.90
7658;DHT22;8462;53.156;8.220;2023-12-07T15:45:07;5.10;99.90
7658;DHT22;8462;53.156;8.220;2023-12-07T15:47:35;5.10;99.90
7658;DHT22;8462;53.156;8.220;2023-12-07T15:50:02;5.10;99.90
7658;DHT22;8462;53.156;8.220;2023-12-07T15:52:29;5.10;99.90
7658;DHT22;8462;53.156;8.220;2023-12-07T15:54:56;5.10;99.90
7658;DHT22;8462;53.156;8.220;2023-12-07T15:57:23;5.00;99.90
7658;DHT22;8462;53.156;8.220;2023-12-07T15:59:50;5.00;99.90
7658;DHT22;8462;53.156;8.220;2023-12-07T16:02:18;5.00;99.90
7658;DHT22;8462;53.156;8.220;2023-12-07T16:04:45;4.90;99.90
7658;DHT22;8462;53.156;8.220;2023-12-07T16:07:13;4.90;99.90
7658;DHT22;8462;53.156;8.220;2023-12-07T16:09:40;4.90;99.90
7658;DHT22;8462;53.156;8.220;2023-12-07T16:12:08;4.80;99.90
7658;DHT22;8462;53.156;8.220;2023-12-07T16:14:35;4.80;99.90
7658;DHT22;8462;53.156;8.220;2023-12-07T16:17:01;4.80;99.90
7658;DHT22;8462;53.156;8.220;2023-12-07T16:19:29;4.70;99.90
7658;DHT22;8462;53.156;8.220;2023-12-07T16:21:58;4.60;99.90